Time;durP1;ratioP1;P1;durP2;ratioP2;P2;SDS_P1;SDS_P2;PMS_P1;PMS_P2;Temp;Humidity;BMP_temperature;BMP_pressure;BME280_temperature;BME280_humidity;BME280_pressure;Samples;Min_cycle;Max_cycle;Signal;HPM_P1;HPM_P2
2021/08/01 00:01:19;;;;;;;8.05;3.63;;;;;;;28.19;34.44;61759.50;4967581;28;20540;-33
2021/08/01 00:03:47;;;;;;;8.00;3.13;;;;;;;28.19;34.31;61760.22;4965535;28;20062;-32
2021/08/01 00:06:12;;;;;;;7.90;3.28;;;;;;;28.19;34.33;61760.06;4968106;28;20116;-31
2021/08/01 00:08:39;;;;;;;7.13;2.92;;;;;;;28.20;34.41;61760.34;4969853;28;20038;-35
2021/08/01 00:11:04;;;;;;;6.35;3.22;;;;;;;28.20;34.63;61761.13;4969733;28;20235;-33
2021/08/01 00:13:30;;;;;;;11.55;3.22;;;;;;;28.20;34.68;61761.22;4968429;28;20027;-33
2021/08/01 00:15:55;;;;;;;7.65;2.92;;;;;;;28.20;34.42;61761.19;4974043;28;20026;-31
2021/08/01 00:18:20;;;;;;;6.20;2.75;;;;;;;28.21;34.49;61761.63;4969599;28;20689;-33
2021/08/01 00:20:46;;;;;;;8.18;3.17;;;;;;;28.21;34.66;61762.41;4969657;28;20030;-32
2021/08/01 00:23:11;;;;;;;9.60;3.35;;;;;;;28.21;34.63;61762.00;4972468;28;20803;-33
2021/08/01 00:25:37;;;;;;;7.15;2.80;;;;;;;28.21;34.56;61762.44;4973306;28;20064;-33
2021/08/01 00:28:02;;;;;;;8.35;3.00;;;;;;;28.22;34.72;61762.91;4983286;28;20038;-31
2021/08/01 00:30:28;;;;;;;4.80;2.60;;;;;;;28.22;34.70;61763.34;4969729;28;20041;-31
2021/08/01 00:32:53;;;;;;;9.57;3.15;;;;;;;28.22;34.56;61763.63;4969881;28;20119;-33
2021/08/01 00:35:19;;;;;;;5.72;2.80;;;;;;;28.22;34.70;61763.75;4970443;28;20064;-34
2021/08/01 00:37:45;;;;;;;6.70;2.92;;;;;;;28.22;34.67;61763.56;4970914;28;20062;-33
2021/08/01 00:40:10;;;;;;;9.30;2.60;;;;;;;28.23;34.66;61763.53;4983478;28;20562;-34
2021/08/01 00:42:36;;;;;;;7.72;3.03;;;;;;;28.23;34.65;61763.63;4968664;28;20026;-33
2021/08/01 00:45:01;;;;;;;6.05;2.53;;;;;;;28.23;34.66;61763.47;4970972;28;20030;-33
2021/08/01 00:47:27;;;;;;;9.10;3.05;;;;;;;28.23;34.65;61763.94;4967394;28;20513;-33
2021/08/01 00:49:52;;;;;;;9.65;2.90;;;;;;;28.23;34.76;61764.34;4973005;28;20068;-33
2021/08/01 00:52:18;;;;;;;6.65;2.65;;;;;;;28.23;34.81;61764.53;4987553;28;20301;-35
2021/08/01 00:54:43;;;;;;;8.18;2.80;;;;;;;28.24;34.92;61764.13;4987095;28;20010;-31
2021/08/01 00:57:08;;;;;;;5.13;2.40;;;;;;;28.24;34.92;61764.13;4991644;28;20026;-31
2021/08/01 00:59:34;;;;;;;6.85;2.60;;;;;;;28.24;34.97;61764.56;4986705;28;20030;-31
2021/08/01 01:02:15;;;;;;;7.80;2.60;;;;;;;28.24;34.84;61764.56;4990859;28;20096;-36
2021/08/01 01:04:54;;;;;;;5.50;2.37;;;;;;;28.24;34.76;61764.75;4983662;28;20041;-31
2021/08/01 01:07:39;;;;;;;7.32;3.00;;;;;;;28.24;34.83;61764.72;5000585;28;20519;-30
2021/08/01 01:10:14;;;;;;;5.13;2.42;;;;;;;28.24;34.83;61764.53;5003163;28;20511;-32
2021/08/01 01:12:42;;;;;;;8.35;2.65;;;;;;;28.24;35.09;61764.09;5005927;28;20181;-31
2021/08/01 01:15:11;;;;;;;8.15;2.60;;;;;;;28.24;34.77;61764.09;4990731;28;20146;-32
2021/08/01 01:17:37;;;;;;;6.50;2.40;;;;;;;28.24;34.86;61763.91;4988783;28;20028;-28
2021/08/01 01:20:04;;;;;;;5.28;2.42;;;;;;;28.24;35.08;61763.97;4987420;28;20034;-34
2021/08/01 01:22:29;;;;;;;9.32;2.65;;;;;;;28.24;34.80;61764.09;5001698;28;20040;-37
2021/08/01 01:24:54;;;;;;;5.20;2.33;;;;;;;28.24;34.97;61763.97;4989284;28;20026;-31
2021/08/01 01:27:37;;;;;;;4.15;2.25;;;;;;;28.24;34.96;61764.13;4975416;28;20018;-33
2021/08/01 01:30:03;;;;;;;5.13;2.20;;;;;;;28.24;35.16;61764.13;4989286;28;20045;-32
2021/08/01 01:32:47;;;;;;;3.42;2.20;;;;;;;28.24;35.06;61763.97;4990799;28;20047;-30
2021/08/01 01:35:15;;;;;;;5.50;2.30;;;;;;;28.24;34.98;61764.31;5003857;28;20029;-34
2021/08/01 01:37:40;;;;;;;5.60;2.33;;;;;;;28.24;35.16;61764.13;4984760;28;20057;-32
2021/08/01 01:40:06;;;;;;;6.13;2.30;;;;;;;28.24;35.01;61763.97;5001938;28;20025;-31
2021/08/01 01:42:31;;;;;;;4.70;2.25;;;;;;;28.24;35.03;61764.13;4990153;28;20028;-32
2021/08/01 01:44:58;;;;;;;8.10;2.53;;;;;;;28.23;35.02;61764.34;5006320;28;20033;-34
2021/08/01 01:47:23;;;;;;;6.68;2.70;;;;;;;28.23;35.10;61764.53;5001693;28;20120;-31
2021/08/01 01:49:49;;;;;;;6.78;2.08;;;;;;;28.23;35.06;61764.53;4985571;28;20409;-33
2021/08/01 01:52:15;;;;;;;4.82;2.17;;;;;;;28.23;35.18;61764.69;4984553;28;20087;-30
2021/08/01 01:54:41;;;;;;;4.18;2.42;;;;;;;28.23;35.24;61764.84;5002443;28;20577;-32
2021/08/01 01:57:07;;;;;;;5.53;2.20;;;;;;;28.24;35.35;61764.97;5001433;28;20096;-35
2021/08/01 01:59:33;;;;;;;4.07;2.00;;;;;;;28.24;35.20;61764.78;4985144;28;20037;-30
2021/08/01 02:01:58;;;;;;;3.90;2.30;;;;;;;28.24;35.37;61764.97;4997353;28;20785;-29
2021/08/01 02:04:24;;;;;;;6.78;2.17;;;;;;;28.23;35.35;61765.00;4988111;28;20626;-31
2021/08/01 02:06:49;;;;;;;5.65;1.92;;;;;;;28.24;35.37;61764.97;4987798;28;20048;-34
2021/08/01 02:09:36;;;;;;;4.15;2.00;;;;;;;28.24;35.28;61765.41;4986678;28;20030;-31
2021/08/01 02:12:04;;;;;;;5.55;2.10;;;;;;;28.24;35.41;61765.84;4998538;28;20057;-30
2021/08/01 02:14:59;;;;;;;3.20;1.73;;;;;;;28.25;35.47;61766.06;4984392;28;20104;-34
2021/08/01 02:17:28;;;;;;;4.10;1.98;;;;;;;28.25;35.32;61766.22;4979400;28;20536;-37
2021/08/01 02:19:53;;;;;;;5.18;1.95;;;;;;;28.24;35.51;61766.13;4963583;28;20116;-31
2021/08/01 02:22:19;;;;;;;3.08;2.00;;;;;;;28.24;35.41;61766.28;4976589;28;20552;-34
2021/08/01 02:24:45;;;;;;;5.22;1.70;;;;;;;28.24;35.57;61766.19;4978949;28;20029;-33
2021/08/01 02:27:10;;;;;;;2.08;1.63;;;;;;;28.24;35.51;61765.88;4984510;28;20065;-32
2021/08/01 02:29:35;;;;;;;4.18;2.10;;;;;;;28.24;35.59;61765.44;4986563;28;20675;-31
2021/08/01 02:32:01;;;;;;;7.13;2.15;;;;;;;28.23;35.46;61764.84;4966341;28;20033;-30
2021/08/01 02:34:26;;;;;;;5.25;1.98;;;;;;;28.23;35.52;61765.19;4999092;28;20088;-38
2021/08/01 02:36:52;;;;;;;4.05;2.13;;;;;;;28.23;35.47;61765.06;5001432;28;20492;-36
2021/08/01 02:39:17;;;;;;;3.42;1.85;;;;;;;28.23;35.51;61764.94;4988252;28;20511;-32
2021/08/01 02:41:43;;;;;;;5.60;2.55;;;;;;;28.23;35.53;61764.78;4984973;28;20037;-35
2021/08/01 02:44:13;;;;;;;5.32;1.73;;;;;;;28.23;35.60;61764.66;4987227;28;20053;-30
2021/08/01 02:46:40;;;;;;;4.70;2.00;;;;;;;28.23;35.67;61764.66;4984685;28;20080;-31
2021/08/01 02:49:06;;;;;;;2.63;1.77;;;;;;;28.23;35.38;61764.50;5001166;28;20022;-34
2021/08/01 02:51:32;;;;;;;4.15;1.85;;;;;;;28.22;35.58;61764.06;4988649;28;20701;-37
2021/08/01 02:53:58;;;;;;;3.30;1.70;;;;;;;28.22;35.46;61763.75;4991634;28;20021;-32
2021/08/01 02:56:25;;;;;;;3.60;1.83;;;;;;;28.22;35.62;61763.56;4988465;28;20115;-34
2021/08/01 02:58:51;;;;;;;3.95;2.08;;;;;;;28.22;35.53;61763.75;5002719;28;20038;-35
2021/08/01 03:01:16;;;;;;;8.48;2.00;;;;;;;28.23;35.63;61763.84;4995420;28;20037;-31
2021/08/01 03:03:41;;;;;;;4.22;2.05;;;;;;;28.23;35.74;61764.00;4985086;28;20259;-30
2021/08/01 03:06:07;;;;;;;6.53;2.13;;;;;;;28.23;35.67;61763.69;4979296;28;20532;-31
2021/08/01 03:08:33;;;;;;;2.85;1.80;;;;;;;28.23;35.69;61763.53;4986466;28;20029;-32
2021/08/01 03:10:58;;;;;;;3.08;1.60;;;;;;;28.23;35.83;61763.97;4992096;28;20409;-30
2021/08/01 03:13:24;;;;;;;5.28;1.80;;;;;;;28.23;36.00;61763.97;4990087;28;20030;-33
2021/08/01 03:15:50;;;;;;;2.80;1.88;;;;;;;28.23;35.61;61764.13;4987111;28;20034;-33
2021/08/01 03:18:15;;;;;;;4.82;1.75;;;;;;;28.23;35.81;61764.28;4999537;28;20048;-31
2021/08/01 03:20:40;;;;;;;3.47;1.60;;;;;;;28.23;35.61;61764.56;4989258;28;20033;-32
2021/08/01 03:23:06;;;;;;;6.80;1.75;;;;;;;28.23;35.72;61764.41;4983654;28;20974;-29
2021/08/01 03:25:34;;;;;;;5.72;1.90;;;;;;;28.23;35.68;61764.41;5000969;28;20506;-32
2021/08/01 03:28:04;;;;;;;3.40;1.85;;;;;;;28.23;35.78;61764.56;4985604;28;20120;-30
2021/08/01 03:30:29;;;;;;;5.70;1.95;;;;;;;28.23;35.78;61764.41;4988314;28;20041;-32
2021/08/01 03:32:54;;;;;;;4.18;1.67;;;;;;;28.23;35.74;61764.75;4984923;28;20085;-29
2021/08/01 03:35:21;;;;;;;4.10;1.90;;;;;;;28.23;35.81;61764.75;4989152;28;20038;-36
2021/08/01 03:37:46;;;;;;;3.30;1.73;;;;;;;28.23;35.77;61764.91;4983070;28;20034;-30
2021/08/01 03:40:13;;;;;;;6.97;1.83;;;;;;;28.23;35.85;61764.09;4981959;28;20037;-36
2021/08/01 03:42:38;;;;;;;7.05;1.58;;;;;;;28.23;35.80;61764.53;4994172;28;20027;-32
2021/08/01 03:45:04;;;;;;;6.53;1.80;;;;;;;28.24;35.83;61764.97;4983684;28;20030;-33
2021/08/01 03:47:30;;;;;;;3.65;1.40;;;;;;;28.24;35.82;61765.06;4984574;28;20030;-31
2021/08/01 03:49:55;;;;;;;3.88;1.65;;;;;;;28.24;36.02;61765.19;4987513;28;20258;-34
2021/08/01 03:52:20;;;;;;;2.97;1.58;;;;;;;28.24;35.84;61765.53;4980921;28;20970;-35
2021/08/01 03:54:46;;;;;;;6.63;1.92;;;;;;;28.24;35.72;61765.97;4986112;28;20029;-30
2021/08/01 03:57:12;;;;;;;3.50;1.60;;;;;;;28.24;35.82;61765.63;4985745;28;20103;-32
2021/08/01 03:59:37;;;;;;;3.95;1.80;;;;;;;28.24;35.77;61765.47;4983547;28;20271;-32
2021/08/01 04:02:03;;;;;;;4.07;1.95;;;;;;;28.25;35.78;61765.91;4985785;28;20352;-31
2021/08/01 04:04:29;;;;;;;8.82;1.90;;;;;;;28.25;35.87;61766.06;4988400;28;20034;-32
2021/08/01 04:06:54;;;;;;;3.15;1.52;;;;;;;28.25;35.97;61766.06;4986332;28;20025;-33
2021/08/01 04:09:19;;;;;;;8.07;2.10;;;;;;;28.24;36.09;61765.63;4988002;28;20309;-33
2021/08/01 04:11:45;;;;;;;6.60;1.77;;;;;;;28.24;35.82;61765.63;4986269;28;20034;-34
2021/08/01 04:14:11;;;;;;;3.97;1.90;;;;;;;28.24;35.95;61765.19;4983081;28;20030;-31
2021/08/01 04:16:36;;;;;;;3.53;1.70;;;;;;;28.24;36.06;61764.91;4985425;28;20033;-32
2021/08/01 04:19:07;;;;;;;4.05;1.65;;;;;;;28.24;35.90;61764.78;4994555;28;20460;-35
2021/08/01 04:21:33;;;;;;;4.20;1.60;;;;;;;28.24;35.96;61764.97;4983922;28;20088;-37
2021/08/01 04:23:58;;;;;;;4.82;1.58;;;;;;;28.24;36.00;61764.78;4982824;28;20289;-35
2021/08/01 04:26:23;;;;;;;6.15;1.63;;;;;;;28.23;35.96;61764.53;4984087;28;20261;-31
2021/08/01 04:28:49;;;;;;;6.07;1.70;;;;;;;28.23;36.08;61764.34;4984607;28;20052;-30
2021/08/01 04:31:15;;;;;;;4.47;1.50;;;;;;;28.23;35.97;61764.09;4985135;28;20037;-32
2021/08/01 04:33:43;;;;;;;6.20;1.85;;;;;;;28.23;35.90;61763.94;4990332;28;20110;-36
2021/08/01 04:36:08;;;;;;;4.20;1.70;;;;;;;28.23;36.15;61764.13;4988620;28;20029;-31
2021/08/01 04:38:33;;;;;;;6.90;1.70;;;;;;;28.23;36.04;61763.69;4981725;28;20035;-34
2021/08/01 04:40:59;;;;;;;4.95;1.48;;;;;;;28.22;36.17;61763.41;4982926;28;20030;-37
2021/08/01 04:43:24;;;;;;;2.58;1.50;;;;;;;28.22;36.00;61763.25;4979544;28;20037;-31
2021/08/01 04:45:49;;;;;;;4.90;1.73;;;;;;;28.22;36.23;61763.13;4980008;28;20115;-35
2021/08/01 04:48:15;;;;;;;3.25;1.67;;;;;;;28.22;36.30;61762.53;4978498;28;20072;-33
2021/08/01 04:50:40;;;;;;;5.03;1.88;;;;;;;28.22;36.09;61762.41;4986423;28;20026;-32
2021/08/01 04:53:06;;;;;;;4.82;1.60;;;;;;;28.21;36.15;61762.34;4987407;28;20034;-33
2021/08/01 04:55:31;;;;;;;6.97;1.70;;;;;;;28.21;36.03;61762.22;4985136;28;20026;-34
2021/08/01 04:57:56;;;;;;;2.70;1.40;;;;;;;28.21;36.14;61762.22;4988337;28;20629;-31
2021/08/01 05:00:22;;;;;;;6.32;1.45;;;;;;;28.21;36.17;61762.09;4983827;28;20026;-31
2021/08/01 05:02:47;;;;;;;3.20;1.65;;;;;;;28.21;36.21;61762.22;4989185;28;20030;-31
2021/08/01 05:05:13;;;;;;;8.85;2.22;;;;;;;28.21;36.06;61762.41;4991248;28;20084;-31
2021/08/01 05:07:38;;;;;;;3.85;1.38;;;;;;;28.21;36.11;61762.34;4990505;28;20037;-32
2021/08/01 05:10:04;;;;;;;6.68;1.77;;;;;;;28.21;36.14;61762.22;4988095;28;20085;-33
2021/08/01 05:12:29;;;;;;;6.68;1.60;;;;;;;28.21;36.17;61762.56;4985810;28;20057;-31
2021/08/01 05:14:55;;;;;;;6.63;1.50;;;;;;;28.21;36.23;61762.25;4988884;28;20045;-31
2021/08/01 05:17:20;;;;;;;2.25;1.48;;;;;;;28.21;36.23;61762.59;4985618;28;20739;-29
2021/08/01 05:19:45;;;;;;;3.50;1.70;;;;;;;28.21;36.14;61762.25;4989875;28;20029;-34
2021/08/01 05:22:15;;;;;;;3.13;1.60;;;;;;;-148.56;100.00;61375.16;4990047;28;20026;-32
2021/08/01 05:24:41;;;;;;;2.88;1.55;;;;;;;28.21;36.10;61762.09;4986622;28;20068;-31
2021/08/01 05:27:07;;;;;;;2.42;1.40;;;;;;;28.20;36.25;61762.00;4989633;28;20030;-31
2021/08/01 05:29:32;;;;;;;5.03;1.48;;;;;;;28.20;36.37;61761.84;4999252;28;20192;-34
2021/08/01 05:31:58;;;;;;;2.80;1.10;;;;;;;28.20;36.30;61761.56;4990393;28;20041;-32
2021/08/01 05:34:23;;;;;;;4.40;1.30;;;;;;;28.20;36.16;61761.56;4990292;28;20037;-32
2021/08/01 05:36:49;;;;;;;6.53;1.52;;;;;;;28.20;36.20;61761.72;4986210;28;20033;-34
2021/08/01 05:39:14;;;;;;;3.33;1.50;;;;;;;28.20;36.20;61761.44;5002089;28;20544;-30
2021/08/01 05:41:39;;;;;;;2.40;1.10;;;;;;;28.20;36.21;61761.47;4987434;28;20087;-33
2021/08/01 05:44:05;;;;;;;4.40;1.58;;;;;;;28.19;36.43;61761.22;4988631;28;20026;-34
2021/08/01 05:46:30;;;;;;;2.80;1.40;;;;;;;28.19;36.29;61760.94;4986936;28;20034;-36
2021/08/01 05:48:56;;;;;;;2.65;1.17;;;;;;;28.19;36.41;61760.66;4983472;28;20077;-30
2021/08/01 05:51:21;;;;;;;4.45;1.48;;;;;;;28.18;36.53;61760.38;4987395;28;20029;-31
2021/08/01 05:53:47;;;;;;;4.00;1.40;;;;;;;28.18;36.39;61760.06;5001245;28;20491;-36
2021/08/01 05:56:12;;;;;;;4.88;1.65;;;;;;;28.18;36.52;61760.09;4989514;28;20038;-35
2021/08/01 05:58:38;;;;;;;3.97;1.70;;;;;;;28.18;36.42;61759.97;4988153;28;20033;-34
2021/08/01 06:01:14;;;;;;;3.33;1.20;;;;;;;28.18;36.52;61759.81;4984498;28;20041;-32
2021/08/01 06:03:40;;;;;;;3.08;1.38;;;;;;;28.18;36.48;61759.53;4990812;28;20038;-33
2021/08/01 06:06:18;;;;;;;3.67;1.13;;;;;;;28.18;36.63;61759.53;4992047;28;20080;-29
2021/08/01 06:08:47;;;;;;;3.22;1.30;;;;;;;28.17;36.52;61759.44;4989668;28;20030;-32
2021/08/01 06:11:13;;;;;;;4.10;1.38;;;;;;;28.17;36.47;61759.44;4983740;28;21922;-33
2021/08/01 06:13:38;;;;;;;2.58;1.40;;;;;;;28.17;36.64;61759.44;4986626;28;20031;-33
2021/08/01 06:16:11;;;;;;;3.08;1.70;;;;;;;28.17;36.53;61759.09;4989500;28;20121;-32
2021/08/01 06:18:36;;;;;;;3.97;1.30;;;;;;;28.17;36.52;61758.66;4987674;28;20034;-35
2021/08/01 06:21:03;;;;;;;3.90;1.60;;;;;;;28.17;36.66;61758.66;4979638;28;20037;-33
2021/08/01 06:23:29;;;;;;;2.20;1.45;;;;;;;28.17;36.62;61758.50;4979713;28;20076;-33
2021/08/01 06:25:54;;;;;;;2.17;1.25;;;;;;;28.17;36.51;61758.50;4979002;28;20026;-31
2021/08/01 06:28:20;;;;;;;3.00;1.40;;;;;;;28.17;36.69;61758.31;4981281;28;20038;-35
2021/08/01 06:30:45;;;;;;;6.32;1.35;;;;;;;28.17;36.60;61757.72;4989772;28;20038;-31
2021/08/01 06:33:11;;;;;;;2.03;1.20;;;;;;;28.17;36.76;61757.56;4988637;28;20404;-30
2021/08/01 06:35:36;;;;;;;1.77;1.05;;;;;;;28.17;36.63;61757.72;4990896;28;20135;-35
2021/08/01 06:38:02;;;;;;;2.85;1.25;;;;;;;28.17;36.70;61757.41;4986778;28;20407;-37
2021/08/01 06:40:27;;;;;;;4.75;1.60;;;;;;;28.17;36.72;61757.56;4981735;28;20507;-32
2021/08/01 06:42:52;;;;;;;3.28;1.42;;;;;;;28.17;36.94;61758.06;4986399;28;20184;-32
2021/08/01 06:45:18;;;;;;;2.03;1.30;;;;;;;28.17;36.74;61757.88;4982774;28;20041;-31
2021/08/01 06:47:43;;;;;;;3.53;1.40;;;;;;;28.17;36.81;61758.31;4985178;28;20029;-28
2021/08/01 06:50:09;;;;;;;4.55;1.52;;;;;;;28.17;36.76;61758.16;4987417;28;20463;-34
2021/08/01 06:52:34;;;;;;;7.82;1.45;;;;;;;28.17;36.92;61758.00;4986979;28;20034;-36
2021/08/01 06:54:59;;;;;;;15.02;2.10;;;;;;;28.17;36.83;61758.00;4997164;28;20351;-32
2021/08/01 06:57:25;;;;;;;6.20;1.83;;;;;;;28.17;36.82;61758.00;4986506;28;20057;-36
2021/08/01 06:59:50;;;;;;;9.15;2.00;;;;;;;28.17;36.83;61757.84;4981620;28;20037;-33
2021/08/01 07:02:15;;;;;;;7.03;2.20;;;;;;;28.17;37.08;61758.28;4981688;28;20030;-36
2021/08/01 07:04:41;;;;;;;7.25;2.05;;;;;;;28.17;36.98;61758.78;4981925;28;20034;-37
2021/08/01 07:07:06;;;;;;;5.63;2.30;;;;;;;28.17;36.79;61758.94;4982214;28;20037;-35
2021/08/01 07:09:39;;;;;;;8.45;2.30;;;;;;;28.18;36.64;61759.53;4974548;28;20034;-33
2021/08/01 07:12:04;;;;;;;9.32;2.22;;;;;;;28.18;36.83;61759.81;4977942;28;20042;-35
2021/08/01 07:14:30;;;;;;;11.30;2.85;;;;;;;28.18;36.90;61759.81;4974595;28;20634;-35
2021/08/01 07:16:56;;;;;;;9.50;2.22;;;;;;;28.18;36.78;61759.94;4982007;28;20038;-34
2021/08/01 07:19:22;;;;;;;6.00;2.00;;;;;;;28.18;36.85;61760.38;4980982;28;20406;-38
2021/08/01 07:21:48;;;;;;;6.85;2.33;;;;;;;28.19;36.72;61760.97;4983659;28;20034;-36
2021/08/01 07:24:13;;;;;;;7.68;2.30;;;;;;;28.19;36.84;61761.88;4996321;28;20033;-32
2021/08/01 07:26:39;;;;;;;11.18;2.53;;;;;;;28.20;36.89;61762.13;4981824;28;20038;-33
2021/08/01 07:29:04;;;;;;;7.90;2.17;;;;;;;28.20;36.79;61762.69;4980129;28;20026;-35
2021/08/01 07:31:30;;;;;;;5.00;2.10;;;;;;;28.21;36.82;61763.53;4978626;28;20042;-34
2021/08/01 07:33:55;;;;;;;6.43;2.17;;;;;;;28.22;36.39;61764.22;4979450;28;20037;-34
2021/08/01 07:36:20;;;;;;;7.47;2.28;;;;;;;28.23;36.84;61765.31;4981904;28;20544;-36
2021/08/01 07:38:46;;;;;;;5.05;2.05;;;;;;;28.23;36.76;61765.81;4977645;28;20045;-33
2021/08/01 07:41:11;;;;;;;7.68;2.65;;;;;;;28.24;36.78;61766.53;4979164;28;20034;-35
2021/08/01 07:43:37;;;;;;;6.15;2.20;;;;;;;28.24;36.64;61766.78;4980025;28;20030;-34
2021/08/01 07:46:02;;;;;;;4.78;2.13;;;;;;;28.25;37.19;61766.88;4979855;28;20721;-31
2021/08/01 07:48:27;;;;;;;6.47;2.25;;;;;;;28.25;36.80;61767.78;4980859;28;20030;-35
2021/08/01 07:50:53;;;;;;;6.38;2.08;;;;;;;28.26;36.97;61768.34;4980109;28;20364;-32
2021/08/01 07:53:18;;;;;;;7.57;2.33;;;;;;;28.26;36.91;61768.91;4980255;28;20038;-33
2021/08/01 07:55:44;;;;;;;4.95;2.10;;;;;;;28.27;36.78;61769.31;4980430;28;20034;-37
2021/08/01 07:58:09;;;;;;;4.28;2.30;;;;;;;28.27;37.02;61769.75;4979629;28;20099;-32
2021/08/01 08:00:34;;;;;;;5.03;2.20;;;;;;;28.28;36.96;61770.47;4978835;28;21969;-33
2021/08/01 08:03:00;;;;;;;4.78;1.90;;;;;;;28.28;36.90;61771.00;4980946;28;20038;-36
2021/08/01 08:05:25;;;;;;;3.40;1.90;;;;;;;28.29;36.90;61771.56;4980683;28;20480;-35
2021/08/01 08:07:51;;;;;;;4.38;2.45;;;;;;;28.29;36.67;61772.34;4978053;28;20026;-37
2021/08/01 08:10:17;;;;;;;4.90;2.10;;;;;;;28.30;36.72;61772.84;4993233;28;20034;-33
2021/08/01 08:12:42;;;;;;;7.18;2.15;;;;;;;-148.56;100.00;61375.16;4978909;28;20754;-34
2021/08/01 08:15:08;;;;;;;5.47;2.13;;;;;;;28.30;36.51;61773.69;4976680;28;20034;-30
2021/08/01 08:17:34;;;;;;;6.40;2.05;;;;;;;28.31;36.59;61773.91;4980218;28;20068;-37
2021/08/01 08:20:01;;;;;;;8.27;2.10;;;;;;;28.32;36.57;61774.47;4994150;28;20108;-36
2021/08/01 08:22:27;;;;;;;5.30;2.05;;;;;;;28.32;36.65;61774.75;4980624;28;20444;-38
2021/08/01 08:24:52;;;;;;;7.10;2.17;;;;;;;28.32;36.57;61775.03;4979417;28;20027;-38
2021/08/01 08:27:17;;;;;;;2.80;1.75;;;;;;;28.32;36.76;61774.97;4978651;28;20037;-35
2021/08/01 08:29:43;;;;;;;3.05;1.75;;;;;;;28.33;36.78;61775.09;4978697;28;20455;-33
2021/08/01 08:32:08;;;;;;;3.33;1.77;;;;;;;28.33;36.61;61775.38;4979343;28;20025;-31
2021/08/01 08:34:34;;;;;;;2.95;1.80;;;;;;;28.33;36.51;61776.09;4982949;28;20448;-36
2021/08/01 08:37:02;;;;;;;5.53;1.80;;;;;;;28.34;36.53;61776.38;4982890;28;20018;-37
2021/08/01 08:39:28;;;;;;;2.78;1.52;;;;;;;28.34;36.72;61777.13;4998408;28;20036;-35
2021/08/01 08:41:55;;;;;;;3.10;1.83;;;;;;;28.34;36.18;61777.69;4983846;28;20041;-33
2021/08/01 08:44:20;;;;;;;2.90;1.73;;;;;;;28.35;36.78;61777.63;4983132;28;20045;-35
2021/08/01 08:46:46;;;;;;;3.72;1.90;;;;;;;28.35;36.78;61777.59;4982566;28;20064;-36
2021/08/01 08:49:12;;;;;;;8.95;2.47;;;;;;;28.35;36.85;61778.38;4990275;28;20037;-32
2021/08/01 08:51:39;;;;;;;13.32;2.17;;;;;;;28.35;36.79;61778.31;4983420;28;20051;-34
2021/08/01 08:54:15;;;;;;;5.68;1.70;;;;;;;28.36;36.92;61778.75;4981362;28;20381;-33
2021/08/01 08:56:41;;;;;;;6.32;2.03;;;;;;;28.36;37.03;61779.31;4983254;28;20034;-36
2021/08/01 08:59:06;;;;;;;3.97;1.77;;;;;;;28.36;36.90;61779.91;4998252;28;20029;-36
2021/08/01 09:01:32;;;;;;;7.75;1.98;;;;;;;28.37;36.99;61780.75;4997974;28;20054;-35
2021/08/01 09:04:00;;;;;;;6.00;2.50;;;;;;;28.38;37.04;61781.47;4983884;28;20029;-31
2021/08/01 09:06:25;;;;;;;6.40;2.30;;;;;;;28.38;37.03;61781.59;4999342;28;20030;-32
2021/08/01 09:08:50;;;;;;;6.32;2.47;;;;;;;28.39;37.17;61781.97;4998145;28;20057;-31
2021/08/01 09:11:16;;;;;;;7.13;2.70;;;;;;;28.39;37.06;61782.25;4984448;28;20033;-38
2021/08/01 09:13:48;;;;;;;5.43;2.47;;;;;;;28.39;37.41;61782.81;4978712;28;20994;-37
2021/08/01 09:16:14;;;;;;;6.63;2.35;;;;;;;28.40;37.65;61783.09;4980113;28;20033;-40
2021/08/01 09:18:41;;;;;;;4.22;2.30;;;;;;;28.40;37.66;61783.09;5006282;28;20100;-35
2021/08/01 09:21:07;;;;;;;6.28;2.35;;;;;;;28.40;37.66;61782.75;4989305;28;20241;-37
2021/08/01 09:23:35;;;;;;;5.50;2.50;;;;;;;28.40;37.70;61783.38;4988335;28;20037;-38
2021/08/01 09:26:04;;;;;;;8.48;2.90;;;;;;;28.40;37.67;61783.81;4984618;28;20091;-37
2021/08/01 09:28:29;;;;;;;5.70;2.28;;;;;;;28.41;37.35;61784.69;4987823;28;20034;-33
2021/08/01 09:31:03;;;;;;;4.38;2.33;;;;;;;28.41;37.10;61785.59;4999120;28;20030;-31
2021/08/01 09:33:31;;;;;;;9.40;2.15;;;;;;;28.42;36.74;61786.13;4987267;28;20425;-33
2021/08/01 09:36:13;;;;;;;3.35;2.10;;;;;;;28.42;36.51;61786.41;4983964;28;20666;-34
2021/08/01 09:38:45;;;;;;;;;;;;;;;-148.56;100.00;61375.16;4985771;28;20514;-32
2021/08/01 09:41:11;;;;;;;5.88;2.65;;;;;;;-148.56;100.00;61375.16;4981948;28;20722;-35
2021/08/01 09:43:49;;;;;;;4.18;2.30;;;;;;;-148.56;100.00;61375.16;4982193;28;20037;-34
2021/08/01 09:46:15;;;;;;;5.82;2.47;;;;;;;-148.56;100.00;61375.16;4984790;28;20030;-31
2021/08/01 09:48:40;;;;;;;6.75;2.65;;;;;;;-148.56;100.00;61375.16;5004884;28;20205;-33
2021/08/01 09:51:07;;;;;;;9.60;2.63;;;;;;;-148.56;100.00;61375.16;4990981;28;20781;-32
2021/08/01 09:53:33;;;;;;;7.32;2.63;;;;;;;-148.56;100.00;61375.16;4990159;28;20053;-34
2021/08/01 09:56:11;;;;;;;10.02;2.72;;;;;;;-148.56;100.00;61375.16;4988454;28;20540;-31
2021/08/01 09:58:37;;;;;;;5.90;2.25;;;;;;;-148.56;100.00;61375.16;4991555;28;20037;-34
2021/08/01 10:01:27;;;;;;;4.82;2.40;;;;;;;-148.56;100.00;61375.16;5007725;28;20087;-34
2021/08/01 10:03:53;;;;;;;4.45;1.92;;;;;;;28.43;36.54;61786.94;4991410;28;20034;-33
2021/08/01 10:06:20;;;;;;;4.72;2.17;;;;;;;28.43;36.64;61788.41;4991983;28;20025;-30
2021/08/01 10:08:46;;;;;;;4.03;2.10;;;;;;;28.43;36.64;61788.41;4991912;28;20105;-33
2021/08/01 10:11:32;;;;;;;6.80;2.30;;;;;;;-148.56;100.00;61375.16;4994647;28;20116;-29
2021/08/01 10:13:57;;;;;;;7.13;2.10;;;;;;;-148.56;100.00;61375.16;4993046;28;20029;-31
2021/08/01 10:16:28;;;;;;;6.50;2.42;;;;;;;-148.56;100.00;61375.16;4987607;28;20188;-36
2021/08/01 10:19:05;;;;;;;6.78;2.33;;;;;;;-148.56;100.00;61375.16;5001897;28;20053;-36
2021/08/01 10:21:31;;;;;;;2.65;1.98;;;;;;;28.44;36.75;61788.97;4991283;28;20053;-36
2021/08/01 10:23:59;;;;;;;4.47;1.80;;;;;;;28.45;36.84;61789.53;4992227;28;20030;-33
2021/08/01 10:26:36;;;;;;;3.45;1.95;;;;;;;28.45;36.91;61789.63;5005513;28;20022;-34
2021/08/01 10:29:10;;;;;;;4.50;1.85;;;;;;;28.45;36.80;61789.75;4991530;28;20057;-32
2021/08/01 10:31:46;;;;;;;6.63;2.15;;;;;;;28.45;36.90;61790.03;5005274;28;20033;-33
2021/08/01 10:34:17;;;;;;;4.68;1.90;;;;;;;28.46;36.90;61790.31;4991331;28;20037;-36
2021/08/01 10:36:49;;;;;;;2.88;1.95;;;;;;;28.46;37.08;61790.56;5004600;28;20034;-37
2021/08/01 10:39:15;;;;;;;5.18;2.42;;;;;;;28.46;37.16;61791.19;5003014;28;20735;-32
2021/08/01 10:41:40;;;;;;;4.45;2.05;;;;;;;28.46;36.97;61791.78;4986600;28;20044;-32
2021/08/01 10:44:10;;;;;;;4.10;1.80;;;;;;;28.47;36.99;61792.22;5002900;28;20022;-30
2021/08/01 10:46:37;;;;;;;3.05;1.77;;;;;;;28.47;37.01;61792.53;4988367;28;20088;-37
2021/08/01 10:49:03;;;;;;;3.70;2.28;;;;;;;28.47;37.08;61792.53;4990234;28;20040;-30
2021/08/01 10:51:29;;;;;;;3.95;2.08;;;;;;;28.47;37.08;61792.78;4985937;28;20033;-35
2021/08/01 10:54:20;;;;;;;3.60;1.80;;;;;;;28.48;37.32;61793.34;5005899;28;20052;-32
2021/08/01 10:56:46;;;;;;;4.32;2.17;;;;;;;28.48;37.08;61793.31;4988176;28;20175;-33
2021/08/01 10:59:49;;;;;;;2.67;1.80;;;;;;;28.48;37.33;61793.56;4983733;28;20072;-31
2021/08/01 11:02:21;;;;;;;4.35;1.95;;;;;;;28.49;37.24;61793.97;4987252;28;20420;-30
2021/08/01 11:04:47;;;;;;;3.00;1.90;;;;;;;28.49;37.23;61794.25;4986519;28;20030;-35
2021/08/01 11:07:33;;;;;;;3.70;1.83;;;;;;;28.49;37.21;61794.66;4987094;28;20103;-29
2021/08/01 11:10:07;;;;;;;3.05;1.75;;;;;;;28.50;37.27;61794.91;4982292;28;20531;-32
2021/08/01 11:12:34;;;;;;;3.33;1.73;;;;;;;28.50;37.24;61795.50;4989169;28;20488;-33
2021/08/01 11:15:01;;;;;;;5.38;2.13;;;;;;;28.51;37.17;61796.03;5001133;28;20026;-32
2021/08/01 11:17:51;;;;;;;3.47;1.75;;;;;;;28.51;37.40;61796.31;4987029;28;20034;-32
2021/08/01 11:20:16;;;;;;;4.13;1.63;;;;;;;28.52;37.42;61797.19;4985039;28;20026;-32
2021/08/01 11:22:42;;;;;;;2.45;1.70;;;;;;;28.52;37.43;61797.44;4990506;28;20376;-29
2021/08/01 11:25:23;;;;;;;3.17;1.83;;;;;;;28.52;37.32;61798.03;4988833;28;20113;-32
2021/08/01 11:28:07;;;;;;;5.20;2.20;;;;;;;28.53;37.30;61798.44;4987181;28;20522;-34
2021/08/01 11:30:54;;;;;;;2.95;1.80;;;;;;;28.53;37.35;61798.97;4989903;28;20029;-31
2021/08/01 11:33:29;;;;;;;4.00;1.70;;;;;;;28.54;37.39;61799.38;4991764;28;20482;-32